createdAt,value
2022-09-17T00:01:22.717Z,642.27
2022-09-17T00:03:52.667Z,643.53
2022-09-17T00:06:22.563Z,641.43
2022-09-17T00:08:50.749Z,627.23
2022-09-17T00:11:21.166Z,631.67
2022-09-17T00:13:49.796Z,648.30
2022-09-17T00:16:24.391Z,644.77
2022-09-17T00:18:52.272Z,644.00
2022-09-17T00:21:22.269Z,634.43
2022-09-17T00:23:50.275Z,641.43
2022-09-17T00:26:18.149Z,644.17
2022-09-17T00:28:49.414Z,644.27
2022-09-17T00:31:17.359Z,639.07
2022-09-17T00:33:45.457Z,640.40
2022-09-17T00:36:13.596Z,640.07
2022-09-17T00:38:43.456Z,641.20
2022-09-17T00:41:11.408Z,630.53
2022-09-17T00:43:41.996Z,640.00
2022-09-17T00:46:25.013Z,637.10
2022-09-17T00:48:54.370Z,647.57
2022-09-17T00:51:26.904Z,642.77
2022-09-17T00:53:56.806Z,635.40
2022-09-17T00:56:27.695Z,635.00
2022-09-17T00:58:56.451Z,637.63
2022-09-17T01:01:24.639Z,632.53
2022-09-17T01:03:52.559Z,638.90
2022-09-17T01:06:26.526Z,638.27
2022-09-17T01:09:05.924Z,639.13
2022-09-17T01:11:43.480Z,635.57
2022-09-17T01:14:24.493Z,642.10
2022-09-17T01:16:58.245Z,635.83
2022-09-17T01:20:04.524Z,634.17
2022-09-17T01:22:35.827Z,636.60
2022-09-17T01:25:24.786Z,637.23
2022-09-17T01:28:39.369Z,645.73
2022-09-17T01:31:26.477Z,643.57
2022-09-17T01:34:01.504Z,637.13
2022-09-17T01:36:46.309Z,633.77
2022-09-17T01:39:23.008Z,640.93
2022-09-17T01:41:55.293Z,639.77
2022-09-17T01:44:29.569Z,634.87
2022-09-17T01:47:03.090Z,645.47
2022-09-17T01:49:31.788Z,640.97
2022-09-17T01:52:00.228Z,643.30
2022-09-17T01:54:32.158Z,639.13
2022-09-17T01:57:02.882Z,636.37
2022-09-17T01:59:34.424Z,635.00
2022-09-17T02:02:08.443Z,646.33
2022-09-17T02:04:38.237Z,639.40
2022-09-17T02:07:09.715Z,638.13
2022-09-17T02:09:41.124Z,635.00
2022-09-17T02:12:13.188Z,638.30
2022-09-17T02:14:43.992Z,637.80
2022-09-17T02:17:17.880Z,638.73
2022-09-17T02:19:45.845Z,631.80
2022-09-17T02:22:27.597Z,641.23
2022-09-17T02:25:02.710Z,642.63
2022-09-17T02:27:38.822Z,634.73
2022-09-17T02:30:07.802Z,637.77
2022-09-17T02:32:37.269Z,635.30
2022-09-17T02:35:06.417Z,636.23
2022-09-17T02:37:34.560Z,619.20
2022-09-17T02:40:03.782Z,621.45
2022-09-17T02:42:36.921Z,633.40
2022-09-17T02:45:08.892Z,629.17
2022-09-17T02:47:51.084Z,637.13
2022-09-17T02:50:28.341Z,645.60
2022-09-17T02:53:06.100Z,637.10
2022-09-17T02:55:38.626Z,636.10
2022-09-17T02:58:13.795Z,630.33
2022-09-17T03:00:41.782Z,631.83
2022-09-17T03:03:16.142Z,649.60
2022-09-17T03:05:45.527Z,631.00
2022-09-17T03:08:15.764Z,632.70
2022-09-17T03:10:43.645Z,635.60
2022-09-17T03:13:11.542Z,645.80
2022-09-17T03:15:39.476Z,634.27
2022-09-17T03:18:07.279Z,636.80
2022-09-17T03:20:36.831Z,633.10
2022-09-17T03:23:06.792Z,640.47
2022-09-17T03:25:34.673Z,637.67
2022-09-17T03:28:02.913Z,632.80
2022-09-17T03:30:30.697Z,632.40
2022-09-17T03:32:58.594Z,638.13
2022-09-17T03:35:26.542Z,634.77
2022-09-17T03:37:55.704Z,641.30
2022-09-17T03:40:23.935Z,632.13
2022-09-17T03:42:51.796Z,635.07
2022-09-17T03:45:19.626Z,633.13
2022-09-17T03:47:47.728Z,631.87
2022-09-17T03:50:15.533Z,631.73
2022-09-17T03:52:44.238Z,638.50
2022-09-17T03:55:13.477Z,637.80
2022-09-17T03:57:41.273Z,640.37
2022-09-17T04:00:10.182Z,641.27
2022-09-17T04:02:38.128Z,632.17
2022-09-17T04:05:07.424Z,642.43
2022-09-17T04:07:35.221Z,633.55
2022-09-17T04:10:04.933Z,639.85
2022-09-17T04:12:34.301Z,636.17
2022-09-17T04:15:02.430Z,627.50
2022-09-17T04:17:30.271Z,630.93
2022-09-17T04:19:58.224Z,633.13
2022-09-17T04:22:26.179Z,633.00
2022-09-17T04:24:54.114Z,630.55
2022-09-17T04:27:22.049Z,634.50
2022-09-17T04:29:51.406Z,636.60
2022-09-17T04:32:19.597Z,642.22
2022-09-17T04:34:47.467Z,609.05
2022-09-17T04:37:15.543Z,596.45
2022-09-17T04:39:43.368Z,603.83
2022-09-17T04:42:11.204Z,613.13
2022-09-17T04:44:39.098Z,616.72
2022-09-17T04:47:08.555Z,606.05
2022-09-17T04:49:36.536Z,607.05
2022-09-17T04:52:04.742Z,606.22
2022-09-17T04:54:32.675Z,619.28
2022-09-17T04:57:00.596Z,606.28
2022-09-17T04:59:28.753Z,605.67
2022-09-17T05:01:56.689Z,608.65
2022-09-17T05:04:26.021Z,609.10
2022-09-17T05:06:54.406Z,603.38
2022-09-17T05:09:22.224Z,609.60
2022-09-17T05:11:50.010Z,595.83
2022-09-17T05:14:17.966Z,604.95
2022-09-17T05:16:48.961Z,601.70
2022-09-17T05:19:16.832Z,602.13
2022-09-17T05:21:46.077Z,604.33
2022-09-17T05:24:14.051Z,599.78
2022-09-17T05:26:42.203Z,599.10
2022-09-17T05:29:10.277Z,608.85
2022-09-17T05:31:38.358Z,613.03
2022-09-17T05:34:06.266Z,606.95
2022-09-17T05:36:34.100Z,615.10
2022-09-17T05:39:03.596Z,611.78
2022-09-17T05:41:31.516Z,609.73
2022-09-17T05:43:59.439Z,615.70
2022-09-17T05:46:27.735Z,609.50
2022-09-17T05:48:57.022Z,606.30
2022-09-17T05:51:26.051Z,610.43
2022-09-17T05:53:55.644Z,590.83
2022-09-17T05:56:25.501Z,610.70
2022-09-17T05:58:56.941Z,600.33
2022-09-17T06:01:25.101Z,612.90
2022-09-17T06:03:53.536Z,610.50
2022-09-17T06:06:21.443Z,612.03
2022-09-17T06:08:49.344Z,604.07
2022-09-17T06:11:17.226Z,612.03
2022-09-17T06:13:46.456Z,612.03
2022-09-17T06:16:14.280Z,626.60
2022-09-17T06:18:42.135Z,616.83
2022-09-17T06:21:10.506Z,605.53
2022-09-17T06:23:38.313Z,619.57
2022-09-17T06:26:07.523Z,623.78
2022-09-17T06:28:40.577Z,623.60
2022-09-17T06:31:12.403Z,630.67
2022-09-17T06:33:40.642Z,622.78
2022-09-17T06:36:13.613Z,623.63
2022-09-17T06:38:42.604Z,610.30
2022-09-17T06:41:10.548Z,623.50
2022-09-17T06:43:38.370Z,618.25
2022-09-17T06:46:09.050Z,625.22
2022-09-17T06:48:39.118Z,633.13
2022-09-17T06:51:08.582Z,630.17
2022-09-17T06:53:37.843Z,634.27
2022-09-17T06:56:08.317Z,628.07
2022-09-17T06:58:37.891Z,619.83
2022-09-17T07:01:06.473Z,626.10
2022-09-17T07:03:34.813Z,625.43
2022-09-17T07:06:04.072Z,632.80
2022-09-17T07:08:34.474Z,629.22
2022-09-17T07:11:02.497Z,625.03
2022-09-17T07:13:30.274Z,636.23
2022-09-17T07:16:00.569Z,627.63
2022-09-17T07:18:29.243Z,628.70
2022-09-17T07:20:58.110Z,636.83
2022-09-17T07:23:28.767Z,643.97
2022-09-17T07:25:58.170Z,633.13
2022-09-17T07:28:26.642Z,639.17
2022-09-17T07:30:55.735Z,636.60
2022-09-17T07:33:26.325Z,647.50
2022-09-17T07:35:54.952Z,629.22
2022-09-17T07:38:23.101Z,634.92
2022-09-17T07:40:58.087Z,637.22
2022-09-17T07:43:26.453Z,639.70
2022-09-17T07:45:54.630Z,635.40
2022-09-17T07:48:22.769Z,634.88
2022-09-17T07:50:51.238Z,628.30
2022-09-17T07:53:19.089Z,644.27
2022-09-17T07:55:53.455Z,637.90
2022-09-17T07:58:23.171Z,630.53
2022-09-17T08:00:51.606Z,628.53
2022-09-17T08:03:19.691Z,626.78
2022-09-17T08:05:48.180Z,622.97
2022-09-17T08:08:20.919Z,622.05
2022-09-17T08:10:49.141Z,619.40
2022-09-17T08:13:17.166Z,649.97
2022-09-17T08:15:46.870Z,635.13
2022-09-17T08:18:17.420Z,621.28
2022-09-17T08:20:45.344Z,626.30
2022-09-17T08:23:13.527Z,657.42
2022-09-17T08:25:41.431Z,614.92
2022-09-17T08:28:09.565Z,610.60
2022-09-17T08:30:37.357Z,610.90
2022-09-17T08:33:06.742Z,695.75
2022-09-17T08:35:34.629Z,627.83
2022-09-17T08:38:02.604Z,617.42
2022-09-17T08:40:31.576Z,607.58
2022-09-17T08:43:02.494Z,664.42
2022-09-17T08:45:30.609Z,622.67
2022-09-17T08:48:10.744Z,629.37
2022-09-17T08:50:42.747Z,627.58
2022-09-17T08:53:28.459Z,685.75
2022-09-17T08:56:01.292Z,618.53
2022-09-17T08:58:47.939Z,640.40
2022-09-17T09:01:32.663Z,614.60
2022-09-17T09:04:08.483Z,630.10
2022-09-17T09:06:41.134Z,621.78
2022-09-17T09:09:13.607Z,622.97
2022-09-17T09:11:42.691Z,606.83
2022-09-17T09:14:14.633Z,622.88
2022-09-17T09:16:45.272Z,618.58
2022-09-17T09:19:23.792Z,618.60
2022-09-17T09:22:03.493Z,622.92
2022-09-17T09:24:38.543Z,630.83
2022-09-17T09:27:16.915Z,631.95
2022-09-17T09:29:51.252Z,640.95
2022-09-17T09:32:26.388Z,635.65
2022-09-17T09:34:55.901Z,641.53
2022-09-17T09:37:28.163Z,634.67
2022-09-17T09:39:57.988Z,640.80
2022-09-17T09:42:31.146Z,666.70
2022-09-17T09:45:04.785Z,644.60
2022-09-17T09:47:57.807Z,629.05
2022-09-17T09:51:05.115Z,633.60
2022-09-17T09:53:43.001Z,643.15
2022-09-17T09:56:25.029Z,636.20
2022-09-17T09:58:54.195Z,640.67
2022-09-17T10:01:22.347Z,635.33
2022-09-17T10:03:51.992Z,633.50
2022-09-17T10:06:20.825Z,632.75
2022-09-17T10:09:14.405Z,639.72
2022-09-17T10:11:42.522Z,630.58
2022-09-17T10:14:23.611Z,625.38
2022-09-17T10:16:51.613Z,630.47
2022-09-17T10:19:25.011Z,623.15
2022-09-17T10:21:53.524Z,635.67
2022-09-17T10:24:27.195Z,618.92
2022-09-17T10:27:02.046Z,621.58
2022-09-17T10:29:30.336Z,628.72
2022-09-17T10:31:59.356Z,631.22
2022-09-17T10:34:28.652Z,621.35
2022-09-17T10:36:57.356Z,613.38
2022-09-17T10:39:34.771Z,604.70
2022-09-17T10:42:04.661Z,580.35
2022-09-17T10:44:35.184Z,582.17
2022-09-17T10:47:05.799Z,598.30
2022-09-17T10:49:39.968Z,595.00
2022-09-17T10:52:15.617Z,593.03
2022-09-17T10:54:58.856Z,607.70
2022-09-17T10:57:39.185Z,616.67
2022-09-17T11:00:14.448Z,612.05
2022-09-17T11:03:05.871Z,689.13
2022-09-17T11:05:46.919Z,617.83
2022-09-17T11:08:18.602Z,619.50
2022-09-17T11:10:54.255Z,629.38
2022-09-17T11:13:29.917Z,635.25
2022-09-17T11:16:09.746Z,640.67
2022-09-17T11:18:41.537Z,630.47
2022-09-17T11:21:42.177Z,616.80
2022-09-17T11:24:32.832Z,627.30
2022-09-17T11:27:09.289Z,636.05
2022-09-17T11:29:56.736Z,632.17
2022-09-17T11:32:39.562Z,649.80
2022-09-17T11:35:10.209Z,621.92
2022-09-17T11:37:41.688Z,619.03
2022-09-17T11:40:14.918Z,620.88
2022-09-17T11:42:46.689Z,700.88
2022-09-17T11:45:18.835Z,614.15
2022-09-17T11:47:49.341Z,630.97
2022-09-17T11:50:21.366Z,614.67
2022-09-17T11:52:57.424Z,689.13
2022-09-17T11:55:30.641Z,621.10
2022-09-17T11:58:02.529Z,600.75
2022-09-17T12:00:31.740Z,587.47
2022-09-17T12:03:03.238Z,674.63
2022-09-17T12:05:34.427Z,611.67
2022-09-17T12:08:06.114Z,615.75
2022-09-17T12:10:38.698Z,613.97
2022-09-17T12:13:17.939Z,694.38
2022-09-17T12:15:52.945Z,629.22
2022-09-17T12:18:33.312Z,618.05
2022-09-17T12:21:03.175Z,624.33
2022-09-17T12:23:38.819Z,619.53
2022-09-17T12:26:15.524Z,620.47
2022-09-17T12:28:51.925Z,623.15
2022-09-17T12:31:26.271Z,616.03
2022-09-17T12:33:57.619Z,615.67
2022-09-17T12:36:37.667Z,610.33
2022-09-17T12:39:21.404Z,591.22
2022-09-17T12:41:56.682Z,594.92
2022-09-17T12:44:39.277Z,586.03
2022-09-17T12:47:22.350Z,591.28
2022-09-17T12:50:05.270Z,612.45
2022-09-17T12:52:45.521Z,670.22
2022-09-17T12:55:31.076Z,596.20
2022-09-17T12:58:04.594Z,614.50
2022-09-17T13:00:39.108Z,608.45
2022-09-17T13:03:13.135Z,667.75
2022-09-17T13:05:56.981Z,21.40
2022-09-17T13:08:56.354Z,561.70
2022-09-17T13:12:00.204Z,666.58
2022-09-17T13:14:39.284Z,656.35
2022-09-17T13:17:11.981Z,660.00
2022-09-17T13:19:45.393Z,654.88
2022-09-17T13:22:17.949Z,610.92
2022-09-17T13:24:49.071Z,610.05
2022-09-17T13:27:22.640Z,607.95
2022-09-17T13:30:01.136Z,605.90
2022-09-17T13:32:51.200Z,631.30
2022-09-17T13:35:51.486Z,594.92
2022-09-17T13:38:24.273Z,607.13
2022-09-17T13:40:53.083Z,631.78
2022-09-17T13:43:24.025Z,639.93
2022-09-17T13:46:12.398Z,639.03
2022-09-17T13:48:57.829Z,632.92
2022-09-17T13:51:53.472Z,616.55
2022-09-17T13:54:23.461Z,629.28
2022-09-17T13:57:07.110Z,630.60
2022-09-17T13:59:36.536Z,625.33
2022-09-17T14:02:30.840Z,611.53
2022-09-17T14:05:31.176Z,621.42
2022-09-17T14:08:31.176Z,607.83
2022-09-17T14:11:01.531Z,614.78
2022-09-17T14:13:45.036Z,612.33
2022-09-17T14:16:35.829Z,614.60
2022-09-17T14:19:07.052Z,605.40
2022-09-17T14:21:36.742Z,610.50
2022-09-17T14:24:15.239Z,602.45
2022-09-17T14:27:01.657Z,611.47
2022-09-17T14:30:03.166Z,617.08
2022-09-17T14:32:34.196Z,605.33
2022-09-17T14:35:02.790Z,618.15
2022-09-17T14:37:33.417Z,616.85
2022-09-17T14:40:01.257Z,623.15
2022-09-17T14:42:36.325Z,620.58
2022-09-17T14:45:07.436Z,632.17
2022-09-17T14:47:35.473Z,637.33
2022-09-17T14:50:21.732Z,638.50
2022-09-17T14:52:51.705Z,643.65
2022-09-17T14:55:21.535Z,639.53
2022-09-17T14:57:52.657Z,633.78
2022-09-17T15:00:23.214Z,620.63
2022-09-17T15:02:59.379Z,639.50
2022-09-17T15:05:31.700Z,642.83
2022-09-17T15:08:12.453Z,646.22
2022-09-17T15:10:47.436Z,642.20
2022-09-17T15:13:16.923Z,637.95
2022-09-17T15:15:53.701Z,633.55
2022-09-17T15:18:22.342Z,633.30
2022-09-17T15:20:50.905Z,642.85
2022-09-17T15:23:25.390Z,646.42
2022-09-17T15:25:56.557Z,641.83
2022-09-17T15:28:29.760Z,631.58
2022-09-17T15:30:57.987Z,635.92
2022-09-17T15:33:25.915Z,649.63
2022-09-17T15:36:02.242Z,641.95
2022-09-17T15:38:33.155Z,654.70
2022-09-17T15:41:21.042Z,647.60
2022-09-17T15:43:49.424Z,640.50
2022-09-17T15:46:24.601Z,646.55
2022-09-17T15:48:52.433Z,642.15
2022-09-17T15:51:26.474Z,642.22
2022-09-17T15:53:57.819Z,648.00
2022-09-17T15:56:27.685Z,638.85
2022-09-17T15:59:01.032Z,645.20
2022-09-17T16:01:55.491Z,650.53
2022-09-17T16:04:28.811Z,647.05
2022-09-17T16:07:02.153Z,650.80
2022-09-17T16:09:40.408Z,647.53
2022-09-17T16:12:08.526Z,635.42
2022-09-17T16:14:36.384Z,623.88
2022-09-17T16:17:17.069Z,617.88
2022-09-17T16:19:45.021Z,624.47
2022-09-17T16:22:35.177Z,647.50
2022-09-17T16:25:05.247Z,635.17
2022-09-17T16:27:35.508Z,638.38
2022-09-17T16:30:05.352Z,632.78
2022-09-17T16:32:33.161Z,648.22
2022-09-17T16:35:00.978Z,648.58
2022-09-17T16:37:28.791Z,649.30
2022-09-17T16:39:56.616Z,642.10
2022-09-17T16:42:25.804Z,634.58
2022-09-17T16:44:54.859Z,638.90
2022-09-17T16:47:22.665Z,638.05
2022-09-17T16:49:50.441Z,631.03
2022-09-17T16:52:18.842Z,627.83
2022-09-17T16:54:46.668Z,630.65
2022-09-17T16:57:14.476Z,628.63
2022-09-17T16:59:43.733Z,636.30
2022-09-17T17:02:11.796Z,629.55
2022-09-17T17:04:39.564Z,624.17
2022-09-17T17:07:07.360Z,627.75
2022-09-17T17:09:35.161Z,617.80
2022-09-17T17:12:03.357Z,648.28
2022-09-17T17:14:31.164Z,616.67
2022-09-17T17:17:00.427Z,620.72
2022-09-17T17:19:29.417Z,622.25
2022-09-17T17:21:57.200Z,623.97
2022-09-17T17:24:25.412Z,629.47
2022-09-17T17:26:53.245Z,634.03
2022-09-17T17:29:21.545Z,624.25
2022-09-17T17:31:50.025Z,618.10
2022-09-17T17:34:19.332Z,626.75
2022-09-17T17:36:49.640Z,630.77
2022-09-17T17:39:17.517Z,631.05
2022-09-17T17:41:49.636Z,617.20
2022-09-17T17:44:21.689Z,624.78
2022-09-17T17:46:49.495Z,631.05
2022-09-17T17:49:17.808Z,635.88
2022-09-17T17:51:48.496Z,638.47
2022-09-17T17:54:16.437Z,638.75
2022-09-17T17:56:44.216Z,626.97
2022-09-17T17:59:12.005Z,629.33
2022-09-17T18:01:39.838Z,628.37
2022-09-17T18:04:08.543Z,627.73
2022-09-17T18:06:36.503Z,628.22
2022-09-17T18:09:06.066Z,628.28
2022-09-17T18:11:34.466Z,628.40
2022-09-17T18:14:02.482Z,624.95
2022-09-17T18:16:34.057Z,626.78
2022-09-17T18:19:01.927Z,624.22
2022-09-17T18:21:29.972Z,624.30
2022-09-17T18:23:57.757Z,627.38
2022-09-17T18:26:28.630Z,632.05
2022-09-17T18:28:56.694Z,635.42
2022-09-17T18:31:26.593Z,636.83
2022-09-17T18:33:57.635Z,621.75
2022-09-17T18:36:25.937Z,634.83
2022-09-17T18:38:56.537Z,625.30
2022-09-17T18:41:24.581Z,620.65
2022-09-17T18:43:53.784Z,605.60
2022-09-17T18:46:21.649Z,589.63
2022-09-17T18:48:54.604Z,481.17
2022-09-17T18:51:23.001Z,393.95
2022-09-17T18:53:51.763Z,326.85
2022-09-17T18:56:21.474Z,270.88
2022-09-17T18:58:50.237Z,274.58
2022-09-17T19:01:20.262Z,320.33
2022-09-17T19:03:48.285Z,319.45
2022-09-17T19:06:16.496Z,246.68
2022-09-17T19:08:45.062Z,289.20
2022-09-17T19:11:13.241Z,294.85
2022-09-17T19:13:42.709Z,338.83
2022-09-17T19:16:11.812Z,410.00
2022-09-17T19:18:41.084Z,437.48
2022-09-17T19:21:11.492Z,479.17
2022-09-17T19:23:41.976Z,519.45
2022-09-17T19:26:11.460Z,523.13
2022-09-17T19:28:40.800Z,526.13
2022-09-17T19:31:10.066Z,543.78
2022-09-17T19:33:38.469Z,555.70
2022-09-17T19:36:10.201Z,556.05
2022-09-17T19:38:38.402Z,560.90
2022-09-17T19:41:08.340Z,561.83
2022-09-17T19:43:37.039Z,572.17
2022-09-17T19:46:06.222Z,573.17
2022-09-17T19:48:35.745Z,571.50
2022-09-17T19:51:04.332Z,570.67
2022-09-17T19:53:34.684Z,572.63
2022-09-17T19:56:02.866Z,562.17
2022-09-17T19:58:30.628Z,563.20
2022-09-17T20:00:59.080Z,567.33
2022-09-17T20:03:27.309Z,566.35
2022-09-17T20:06:00.193Z,574.38
2022-09-17T20:08:28.221Z,570.63
2022-09-17T20:11:05.572Z,587.25
2022-09-17T20:13:33.393Z,588.72
2022-09-17T20:16:04.995Z,595.70
2022-09-17T20:18:33.060Z,587.03
2022-09-17T20:21:01.058Z,587.50
2022-09-17T20:23:31.759Z,595.45
2022-09-17T20:26:00.995Z,585.20
2022-09-17T20:28:29.033Z,588.90
2022-09-17T20:31:04.258Z,577.70
2022-09-17T20:33:32.372Z,590.58
2022-09-17T20:36:00.802Z,576.40
2022-09-17T20:41:22.100Z,585.15
2022-09-17T20:43:52.544Z,584.10
2022-09-17T20:46:24.815Z,583.33
2022-09-17T20:48:57.483Z,588.17
2022-09-17T20:51:26.918Z,582.10
2022-09-17T20:53:54.778Z,581.55
2022-09-17T20:56:25.337Z,579.03
2022-09-17T20:59:00.045Z,589.13
2022-09-17T21:01:32.268Z,575.42
2022-09-17T21:04:01.473Z,580.38
2022-09-17T21:06:31.127Z,585.55
2022-09-17T21:09:00.068Z,581.38
2022-09-17T21:11:32.657Z,585.63
2022-09-17T21:14:00.747Z,589.03
2022-09-17T21:16:28.966Z,587.75
2022-09-17T21:18:58.007Z,586.45
2022-09-17T21:21:26.658Z,580.13
2022-09-17T21:23:54.971Z,585.10
2022-09-17T21:26:24.049Z,597.22
2022-09-17T21:28:56.354Z,588.95
2022-09-17T21:31:31.098Z,584.65
2022-09-17T21:34:02.207Z,590.65
2022-09-17T21:36:32.072Z,596.28
2022-09-17T21:39:01.078Z,602.00
2022-09-17T21:41:29.191Z,598.75
2022-09-17T21:43:58.440Z,598.65
2022-09-17T21:46:29.081Z,598.47
2022-09-17T21:48:58.166Z,595.65
2022-09-17T21:51:30.294Z,597.92
2022-09-17T21:53:59.541Z,596.78
2022-09-17T21:56:27.623Z,599.78
2022-09-17T21:58:58.663Z,600.45
2022-09-17T22:01:31.128Z,601.58
2022-09-17T22:03:59.963Z,598.88
2022-09-17T22:06:30.250Z,600.00
2022-09-17T22:08:59.301Z,606.13
2022-09-17T22:11:29.482Z,602.28
2022-09-17T22:14:00.923Z,595.55
2022-09-17T22:16:31.176Z,593.53
2022-09-17T22:18:59.727Z,605.50
2022-09-17T22:21:28.916Z,597.03
2022-09-17T22:24:02.077Z,593.55
2022-09-17T22:26:31.946Z,597.72
2022-09-17T22:29:03.740Z,593.47
2022-09-17T22:31:31.882Z,587.92
2022-09-17T22:33:59.965Z,593.35
2022-09-17T22:36:28.461Z,586.70
2022-09-17T22:38:58.391Z,593.72
2022-09-17T22:41:27.699Z,596.42
2022-09-17T22:43:56.940Z,585.92
2022-09-17T22:46:28.381Z,588.95
2022-09-17T22:48:56.680Z,592.17
2022-09-17T22:51:24.656Z,587.90
2022-09-17T22:53:53.038Z,597.08
2022-09-17T22:56:23.315Z,577.72
2022-09-17T22:58:51.658Z,586.85
2022-09-17T23:01:21.523Z,591.92
2022-09-17T23:03:52.597Z,592.55
2022-09-17T23:06:22.436Z,588.25
2022-09-17T23:08:50.786Z,593.08
2022-09-17T23:11:20.059Z,579.95
2022-09-17T23:13:48.824Z,580.13
2022-09-17T23:16:17.364Z,593.05
2022-09-17T23:18:45.512Z,593.67
2022-09-17T23:21:16.655Z,589.33
2022-09-17T23:23:46.097Z,585.75
2022-09-17T23:26:16.665Z,584.00
2022-09-17T23:28:44.569Z,589.58
2022-09-17T23:31:14.665Z,595.17
2022-09-17T23:33:42.961Z,587.85
2022-09-17T23:36:13.226Z,587.22
2022-09-17T23:38:43.603Z,588.92
2022-09-17T23:41:13.693Z,584.38
2022-09-17T23:43:41.971Z,591.75
2022-09-17T23:46:10.212Z,593.13
2022-09-17T23:48:38.907Z,590.75
2022-09-17T23:51:07.235Z,590.20
2022-09-17T23:53:37.088Z,595.55
2022-09-17T23:56:12.707Z,597.38
2022-09-17T23:58:41.085Z,602.83
